21°C Temp
11°C Dewpoint
53% Humidity
Temperature
10 KM/H
6 MPH
5 KTS
40°
North East

Wind Speed
Clear
Conditions
Pressure 1013.88 (hPa) - 29.94 (in)
Visibility 6.0 (mi) - 9.7 (km)

Current Conditions
EPRZ
Location 9(km)
Metar :EPRZ 290800Z 04005KT 330V090 CAVOK 21/11 Q1014
Wed 29th May 11:00 am

Airport